createdAt,value
2022-10-23T00:01:43.601Z,98.19
2022-10-23T00:04:22.373Z,98.92
2022-10-23T00:06:50.060Z,99.09
2022-10-23T00:09:18.991Z,99.12
2022-10-23T00:11:48.093Z,99.09
2022-10-23T00:14:16.341Z,98.35
2022-10-23T00:16:43.262Z,98.79
2022-10-23T00:19:09.906Z,98.77
2022-10-23T00:21:36.586Z,98.83
2022-10-23T00:24:03.396Z,98.78
2022-10-23T00:26:30.201Z,98.56
2022-10-23T00:28:56.909Z,98.83
2022-10-23T00:31:25.046Z,98.67
2022-10-23T00:33:53.004Z,98.78
2022-10-23T00:36:21.193Z,98.56
2022-10-23T00:38:48.223Z,99.15
2022-10-23T00:41:24.800Z,99.49
2022-10-23T00:44:03.227Z,98.31
2022-10-23T00:46:30.367Z,98.75
2022-10-23T00:48:58.201Z,99.70
2022-10-23T00:51:28.370Z,99.49
2022-10-23T00:54:06.776Z,98.86
2022-10-23T00:56:45.795Z,98.82
2022-10-23T00:59:13.106Z,98.82
2022-10-23T01:01:40.283Z,98.72
2022-10-23T01:04:07.894Z,98.77
2022-10-23T01:06:44.864Z,98.78
2022-10-23T01:09:38.179Z,99.39
2022-10-23T01:12:45.226Z,99.62
2022-10-23T01:15:14.837Z,99.09
2022-10-23T01:18:06.648Z,99.27
2022-10-23T01:20:43.270Z,99.28
2022-10-23T01:23:47.481Z,98.31
2022-10-23T01:26:42.108Z,99.08
2022-10-23T01:29:33.152Z,99.29
2022-10-23T01:32:27.300Z,98.97
2022-10-23T01:35:13.019Z,98.78
2022-10-23T01:37:46.108Z,98.50
2022-10-23T01:40:24.856Z,98.85
2022-10-23T01:42:56.481Z,98.68
2022-10-23T01:45:36.475Z,98.97
2022-10-23T01:48:04.566Z,99.61
2022-10-23T01:50:32.474Z,98.51
2022-10-23T01:52:59.630Z,99.16
2022-10-23T01:55:26.786Z,100.00
2022-10-23T01:57:54.549Z,100.00
2022-10-23T02:00:22.106Z,99.08
2022-10-23T02:02:51.227Z,99.58
2022-10-23T02:05:29.138Z,99.43
2022-10-23T02:07:56.626Z,100.00
2022-10-23T02:10:28.053Z,100.00
2022-10-23T02:13:13.206Z,99.35
2022-10-23T02:15:51.504Z,99.24
2022-10-23T02:18:44.854Z,98.99
2022-10-23T02:21:16.514Z,99.40
2022-10-23T02:24:11.863Z,98.74
2022-10-23T02:27:10.281Z,99.14
2022-10-23T02:29:41.638Z,99.51
2022-10-23T02:32:10.028Z,99.15
2022-10-23T02:34:36.758Z,98.85
2022-10-23T02:37:03.732Z,98.74
2022-10-23T02:39:30.524Z,99.37
2022-10-23T02:42:12.605Z,98.86
2022-10-23T02:44:54.472Z,98.54
2022-10-23T02:47:46.850Z,99.25
2022-10-23T02:50:47.356Z,99.65
2022-10-23T02:53:21.338Z,99.65
2022-10-23T02:56:10.150Z,99.35
2022-10-23T02:59:03.958Z,99.89
2022-10-23T03:01:39.195Z,99.42
2022-10-23T03:04:08.609Z,99.25
2022-10-23T03:06:35.450Z,99.61
2022-10-23T03:09:08.401Z,99.02
2022-10-23T03:11:35.015Z,99.60
2022-10-23T03:14:01.886Z,99.80
2022-10-23T03:16:28.690Z,99.42
2022-10-23T03:18:55.417Z,99.01
2022-10-23T03:21:21.952Z,98.77
2022-10-23T03:23:48.564Z,98.99
2022-10-23T03:26:16.131Z,98.66
2022-10-23T03:28:43.023Z,98.14
2022-10-23T03:31:09.686Z,99.26
2022-10-23T03:33:36.202Z,98.91
2022-10-23T03:36:02.782Z,98.57
2022-10-23T03:38:29.669Z,99.24
2022-10-23T03:40:56.211Z,99.10
2022-10-23T03:43:22.708Z,98.21
2022-10-23T03:45:49.239Z,98.68
2022-10-23T03:48:15.783Z,100.00
2022-10-23T03:50:42.274Z,99.89
2022-10-23T03:53:08.827Z,99.46
2022-10-23T03:55:35.339Z,99.75
2022-10-23T03:58:01.883Z,99.75
2022-10-23T04:00:28.507Z,99.84
2022-10-23T04:02:55.106Z,99.45
2022-10-23T04:05:21.615Z,99.96
2022-10-23T04:07:48.164Z,100.00
2022-10-23T04:10:14.674Z,99.36
2022-10-23T04:12:41.457Z,99.51
2022-10-23T04:15:08.701Z,99.81
2022-10-23T04:17:35.281Z,99.92
2022-10-23T04:20:01.817Z,100.00
2022-10-23T04:22:28.714Z,100.00
2022-10-23T04:24:55.480Z,99.64
2022-10-23T04:27:22.070Z,100.00
2022-10-23T04:29:49.412Z,100.00
2022-10-23T04:32:16.026Z,100.00
2022-10-23T04:34:42.537Z,100.00
2022-10-23T04:37:09.146Z,99.76
2022-10-23T04:39:35.649Z,99.65
2022-10-23T04:42:02.180Z,100.00
2022-10-23T04:44:28.775Z,99.65
2022-10-23T04:46:55.527Z,99.92
2022-10-23T04:49:22.080Z,100.00
2022-10-23T04:51:48.871Z,100.00
2022-10-23T04:54:15.469Z,100.00
2022-10-23T04:56:41.998Z,100.00
2022-10-23T04:59:09.118Z,100.00
2022-10-23T05:01:36.008Z,100.00
2022-10-23T05:04:02.655Z,100.00
2022-10-23T05:06:29.191Z,99.75
2022-10-23T05:08:56.256Z,99.69
2022-10-23T05:11:22.981Z,100.00
2022-10-23T05:13:49.895Z,99.54
2022-10-23T05:16:37.512Z,99.56
2022-10-23T05:19:07.639Z,100.00
2022-10-23T05:21:36.025Z,99.42
2022-10-23T05:24:02.732Z,100.00
2022-10-23T05:26:31.653Z,99.29
2022-10-23T05:28:58.248Z,99.69
2022-10-23T05:31:25.730Z,99.31
2022-10-23T05:33:55.195Z,99.10
2022-10-23T05:36:23.656Z,99.36
2022-10-23T05:38:50.935Z,99.32
2022-10-23T05:41:18.091Z,99.76
2022-10-23T05:43:46.196Z,99.43
2022-10-23T05:46:12.766Z,99.54
2022-10-23T05:48:39.651Z,99.14
2022-10-23T05:51:08.798Z,99.26
2022-10-23T05:53:38.692Z,99.86
2022-10-23T05:56:09.369Z,99.55
2022-10-23T05:58:36.734Z,100.00
2022-10-23T06:01:08.929Z,99.02
2022-10-23T06:03:36.904Z,98.92
2022-10-23T06:06:04.153Z,99.71
2022-10-23T06:08:31.708Z,99.86
2022-10-23T06:10:58.506Z,99.98
2022-10-23T06:13:25.103Z,99.51
2022-10-23T06:15:51.638Z,99.60
2022-10-23T06:18:18.166Z,99.66
2022-10-23T06:20:44.726Z,99.69
2022-10-23T06:23:11.231Z,99.74
2022-10-23T06:25:37.909Z,99.72
2022-10-23T06:28:04.454Z,100.00
2022-10-23T06:30:31.003Z,99.70
2022-10-23T06:32:57.690Z,100.00
2022-10-23T06:35:24.315Z,100.00
2022-10-23T06:37:50.830Z,100.00
2022-10-23T06:40:17.486Z,99.97
2022-10-23T06:42:44.394Z,100.00
2022-10-23T06:45:11.158Z,100.00
2022-10-23T06:47:37.846Z,100.00
2022-10-23T06:50:04.774Z,99.79
2022-10-23T06:52:47.816Z,99.94
2022-10-23T06:55:15.035Z,99.86
2022-10-23T06:57:42.235Z,99.74
2022-10-23T07:00:09.824Z,99.91
2022-10-23T07:02:36.741Z,98.89
2022-10-23T07:05:04.010Z,98.57
2022-10-23T07:07:31.061Z,98.18
2022-10-23T07:09:57.610Z,98.19
2022-10-23T07:12:24.346Z,98.44
2022-10-23T07:14:50.849Z,97.99
2022-10-23T07:17:17.553Z,97.88
2022-10-23T07:19:44.041Z,97.58
2022-10-23T07:22:13.331Z,97.45
2022-10-23T07:24:42.576Z,98.00
2022-10-23T07:27:09.903Z,97.20
2022-10-23T07:29:37.056Z,96.97
2022-10-23T07:32:04.720Z,97.19
2022-10-23T07:34:32.144Z,97.27
2022-10-23T07:36:58.724Z,97.02
2022-10-23T07:39:25.377Z,97.34
2022-10-23T07:41:51.878Z,97.16
2022-10-23T07:44:18.395Z,97.48
2022-10-23T07:46:45.138Z,97.54
2022-10-23T07:49:11.625Z,97.64
2022-10-23T07:51:38.122Z,96.64
2022-10-23T07:54:04.762Z,96.60
2022-10-23T07:56:31.740Z,95.79
2022-10-23T07:58:58.431Z,95.36
2022-10-23T08:01:32.365Z,95.24
2022-10-23T08:04:00.021Z,94.21
2022-10-23T08:06:26.587Z,94.15
2022-10-23T08:08:53.109Z,94.14
2022-10-23T08:11:25.894Z,93.80
2022-10-23T08:13:53.567Z,92.88
2022-10-23T08:16:20.638Z,92.26
2022-10-23T08:18:49.465Z,92.26
2022-10-23T08:21:17.349Z,91.44
2022-10-23T08:23:44.386Z,91.59
2022-10-23T08:26:11.958Z,90.73
2022-10-23T08:28:38.965Z,88.89
2022-10-23T08:31:11.297Z,88.91
2022-10-23T08:33:38.460Z,87.74
2022-10-23T08:36:05.437Z,88.76
2022-10-23T08:38:33.782Z,86.74
2022-10-23T08:41:01.749Z,86.61
2022-10-23T08:43:46.577Z,85.84
2022-10-23T08:46:18.002Z,86.84
2022-10-23T08:49:02.910Z,84.36
2022-10-23T08:51:40.527Z,84.16
2022-10-23T08:54:19.489Z,84.73
2022-10-23T08:56:54.170Z,83.39
2022-10-23T08:59:47.104Z,84.46
2022-10-23T09:02:21.182Z,82.47
2022-10-23T09:04:50.597Z,83.03
2022-10-23T09:07:40.003Z,81.73
2022-10-23T09:10:32.627Z,81.04
2022-10-23T09:13:22.263Z,81.02
2022-10-23T09:16:03.664Z,81.07
2022-10-23T09:18:31.074Z,77.66
2022-10-23T09:20:57.643Z,79.29
2022-10-23T09:23:24.740Z,78.35
2022-10-23T09:25:57.134Z,77.78
2022-10-23T09:28:27.230Z,76.46
2022-10-23T09:30:53.867Z,74.30
2022-10-23T09:33:27.183Z,73.65
2022-10-23T09:36:20.685Z,70.11
2022-10-23T09:38:47.152Z,71.38
2022-10-23T09:41:16.173Z,70.39
2022-10-23T09:43:43.254Z,71.74
2022-10-23T09:46:10.940Z,71.58
2022-10-23T09:48:39.571Z,70.03
2022-10-23T09:51:21.057Z,69.51
2022-10-23T09:53:54.037Z,70.67
2022-10-23T09:56:25.796Z,70.10
2022-10-23T09:59:02.327Z,69.56
2022-10-23T10:01:38.739Z,69.32
2022-10-23T10:04:05.352Z,69.69
2022-10-23T10:06:33.530Z,70.83
2022-10-23T10:09:04.206Z,71.97
2022-10-23T10:11:54.060Z,72.26
2022-10-23T10:14:58.392Z,71.55
2022-10-23T10:17:47.536Z,71.33
2022-10-23T10:20:49.679Z,71.29
2022-10-23T10:23:55.850Z,72.66
2022-10-23T10:27:06.688Z,74.47
2022-10-23T10:29:52.875Z,76.51
2022-10-23T10:32:19.486Z,77.55
2022-10-23T10:34:55.758Z,76.03
2022-10-23T10:37:46.036Z,73.89
2022-10-23T10:40:30.611Z,73.65
2022-10-23T10:43:14.458Z,74.91
2022-10-23T10:45:47.644Z,75.08
2022-10-23T10:48:17.246Z,75.97
2022-10-23T10:50:52.722Z,74.94
2022-10-23T10:53:33.961Z,75.12
2022-10-23T10:56:04.546Z,77.82
2022-10-23T10:58:46.330Z,77.07
2022-10-23T11:01:28.410Z,76.71
2022-10-23T11:03:54.998Z,75.68
2022-10-23T11:06:25.654Z,76.34
2022-10-23T11:08:58.137Z,75.73
2022-10-23T11:11:40.809Z,75.08
2022-10-23T11:14:16.591Z,76.49
2022-10-23T11:16:48.066Z,75.27
2022-10-23T11:19:49.273Z,75.92
2022-10-23T11:22:28.443Z,75.85
2022-10-23T11:25:47.159Z,74.40
2022-10-23T11:28:23.920Z,73.71
2022-10-23T11:31:25.629Z,72.14
2022-10-23T11:34:23.246Z,70.42
2022-10-23T11:36:55.910Z,70.33
2022-10-23T11:39:27.259Z,69.22
2022-10-23T11:41:59.947Z,69.46
2022-10-23T11:44:28.881Z,70.25
2022-10-23T11:47:04.008Z,69.57
2022-10-23T11:49:30.801Z,68.25
2022-10-23T11:52:05.400Z,68.44
2022-10-23T11:54:32.445Z,68.63
2022-10-23T11:57:10.296Z,68.77
2022-10-23T11:59:53.714Z,67.30
2022-10-23T12:02:32.533Z,67.19
2022-10-23T12:05:06.143Z,71.03
2022-10-23T12:07:42.331Z,71.23
2022-10-23T12:10:23.701Z,71.30
2022-10-23T12:13:05.350Z,72.40
2022-10-23T12:15:35.077Z,72.96
2022-10-23T12:18:16.492Z,73.45
2022-10-23T12:20:56.295Z,73.17
2022-10-23T12:23:30.162Z,72.79
2022-10-23T12:25:59.442Z,72.17
2022-10-23T12:28:44.241Z,70.44
2022-10-23T12:31:35.720Z,70.33
2022-10-23T12:34:11.174Z,71.91
2022-10-23T12:36:50.834Z,71.66
2022-10-23T12:39:26.109Z,72.12
2022-10-23T12:41:53.061Z,69.25
2022-10-23T12:44:19.957Z,67.85
2022-10-23T12:46:48.623Z,67.37
2022-10-23T12:49:26.735Z,65.55
2022-10-23T12:52:04.715Z,65.08
2022-10-23T12:54:33.848Z,65.39
2022-10-23T12:57:00.411Z,65.01
2022-10-23T12:59:38.243Z,68.37
2022-10-23T13:02:33.991Z,69.54
2022-10-23T13:05:03.512Z,69.37
2022-10-23T13:07:34.259Z,69.12
2022-10-23T13:10:02.447Z,69.63
2022-10-23T13:12:35.487Z,68.64
2022-10-23T13:15:07.799Z,68.59
2022-10-23T13:17:40.645Z,67.75
2022-10-23T13:20:30.275Z,69.49
2022-10-23T13:23:09.860Z,68.25
2022-10-23T13:25:39.312Z,68.91
2022-10-23T13:28:16.113Z,68.27
2022-10-23T13:30:46.252Z,65.68
2022-10-23T13:33:26.265Z,64.40
2022-10-23T13:36:13.853Z,62.97
2022-10-23T13:38:43.409Z,61.76
2022-10-23T13:41:18.750Z,62.84
2022-10-23T13:43:46.822Z,59.24
2022-10-23T13:46:18.424Z,60.17
2022-10-23T13:48:45.442Z,58.90
2022-10-23T13:51:13.526Z,59.56
2022-10-23T13:53:40.048Z,60.04
2022-10-23T13:56:06.857Z,58.54
2022-10-23T13:58:33.381Z,58.17
2022-10-23T14:01:03.276Z,59.82
2022-10-23T14:03:29.979Z,59.88
2022-10-23T14:05:56.671Z,60.65
2022-10-23T14:08:23.395Z,61.41
2022-10-23T14:10:49.953Z,62.48
2022-10-23T14:13:17.986Z,63.81
2022-10-23T14:15:44.484Z,64.71
2022-10-23T14:18:10.996Z,65.42
2022-10-23T14:20:39.103Z,67.45
2022-10-23T14:23:05.606Z,70.08
2022-10-23T14:25:32.121Z,70.92
2022-10-23T14:27:58.790Z,71.67
2022-10-23T14:30:25.305Z,72.50
2022-10-23T14:32:52.739Z,72.00
2022-10-23T14:35:19.384Z,72.78
2022-10-23T14:37:46.397Z,73.82
2022-10-23T14:40:13.356Z,73.54
2022-10-23T14:42:40.089Z,73.02
2022-10-23T14:45:07.147Z,72.27
2022-10-23T14:47:33.721Z,73.25
2022-10-23T14:50:00.452Z,71.42
2022-10-23T14:52:27.033Z,71.79
2022-10-23T14:54:53.971Z,69.78
2022-10-23T14:57:22.431Z,70.28
2022-10-23T14:59:49.540Z,70.00
2022-10-23T15:02:16.748Z,69.12
2022-10-23T15:04:43.574Z,69.42
2022-10-23T15:07:10.108Z,69.32
2022-10-23T15:09:37.388Z,69.32
2022-10-23T15:12:04.653Z,69.12
2022-10-23T15:14:31.517Z,68.30
2022-10-23T15:16:58.060Z,68.08
2022-10-23T15:19:25.865Z,67.76
2022-10-23T15:21:52.607Z,68.80
2022-10-23T15:24:20.843Z,69.92
2022-10-23T15:26:48.628Z,70.99
2022-10-23T15:29:16.201Z,72.11
2022-10-23T15:31:48.004Z,73.04
2022-10-23T15:34:27.031Z,73.20
2022-10-23T15:36:54.799Z,74.93
2022-10-23T15:39:33.939Z,75.89
2022-10-23T15:42:00.616Z,77.31
2022-10-23T15:44:29.812Z,78.23
2022-10-23T15:46:57.132Z,79.04
2022-10-23T15:49:24.856Z,79.19
2022-10-23T15:51:52.669Z,79.35
2022-10-23T15:54:20.783Z,80.05
2022-10-23T15:56:50.358Z,81.18
2022-10-23T15:59:18.867Z,81.77
2022-10-23T16:01:45.739Z,82.13
2022-10-23T16:04:12.752Z,82.38
2022-10-23T16:06:39.515Z,82.95
2022-10-23T16:09:06.315Z,83.03
2022-10-23T16:11:38.460Z,83.74
2022-10-23T16:14:05.477Z,83.93
2022-10-23T16:16:33.109Z,84.71
2022-10-23T16:19:01.275Z,85.19
2022-10-23T16:21:31.070Z,85.29
2022-10-23T16:24:00.223Z,86.39
2022-10-23T16:26:28.060Z,86.45
2022-10-23T16:29:00.688Z,87.24
2022-10-23T16:31:28.051Z,86.62
2022-10-23T16:36:24.792Z,87.01
2022-10-23T16:38:51.306Z,88.09
2022-10-23T16:41:17.796Z,88.21
2022-10-23T16:43:44.522Z,87.88
2022-10-23T16:46:16.395Z,88.39
2022-10-23T16:48:43.105Z,88.35
2022-10-23T16:51:15.351Z,89.24
2022-10-23T16:53:43.120Z,89.15
2022-10-23T16:56:11.695Z,89.08
2022-10-23T16:58:41.950Z,89.39
2022-10-23T17:01:15.487Z,89.14
2022-10-23T17:03:44.939Z,89.17
2022-10-23T17:06:13.609Z,90.21
2022-10-23T17:08:40.703Z,90.03
2022-10-23T17:11:13.069Z,89.56
2022-10-23T17:13:45.390Z,89.11
2022-10-23T17:16:18.136Z,90.27
2022-10-23T17:18:45.645Z,90.16
2022-10-23T17:21:13.909Z,90.48
2022-10-23T17:23:41.376Z,90.79
2022-10-23T17:26:09.818Z,90.80
2022-10-23T17:28:43.526Z,90.95
2022-10-23T17:31:22.848Z,90.90
2022-10-23T17:33:51.751Z,91.14
2022-10-23T17:36:20.117Z,91.22
2022-10-23T17:38:46.827Z,91.91
2022-10-23T17:41:15.734Z,91.41
2022-10-23T17:43:43.525Z,91.43
2022-10-23T17:46:12.020Z,91.57
2022-10-23T17:48:39.768Z,91.80
2022-10-23T17:51:07.615Z,91.68
2022-10-23T17:53:35.648Z,92.24
2022-10-23T17:56:06.538Z,92.46
2022-10-23T17:58:33.731Z,92.58
2022-10-23T18:01:11.884Z,91.97
2022-10-23T18:03:39.157Z,92.58
2022-10-23T18:06:15.958Z,92.06
2022-10-23T18:08:43.981Z,92.58
2022-10-23T18:11:25.353Z,92.57
2022-10-23T18:13:52.966Z,92.39
2022-10-23T18:16:20.751Z,92.10
2022-10-23T18:18:48.377Z,92.16
2022-10-23T18:21:16.873Z,92.11
2022-10-23T18:23:43.447Z,92.47
2022-10-23T18:26:37.890Z,92.82
2022-10-23T18:29:07.753Z,92.72
2022-10-23T18:31:35.881Z,91.62
2022-10-23T18:34:23.305Z,89.96
2022-10-23T18:36:52.519Z,87.32
2022-10-23T18:39:22.605Z,87.44
2022-10-23T18:41:52.451Z,86.69
2022-10-23T18:44:20.748Z,87.53
2022-10-23T18:46:48.996Z,87.19
2022-10-23T18:49:18.171Z,88.34
2022-10-23T18:51:44.783Z,88.86
2022-10-23T18:54:14.275Z,89.23
2022-10-23T18:56:41.366Z,89.75
2022-10-23T18:59:11.818Z,89.37
2022-10-23T19:01:38.435Z,89.46
2022-10-23T19:04:05.432Z,90.40
2022-10-23T19:06:34.977Z,90.85
2022-10-23T19:09:02.364Z,91.29
2022-10-23T19:11:29.359Z,91.67
2022-10-23T19:13:55.890Z,91.45
2022-10-23T19:16:25.008Z,92.10
2022-10-23T19:19:05.690Z,92.59
2022-10-23T19:21:36.861Z,93.17
2022-10-23T19:24:12.393Z,92.78
2022-10-23T19:26:40.633Z,93.56
2022-10-23T19:29:09.254Z,93.70
2022-10-23T19:31:36.074Z,93.40
2022-10-23T19:34:02.717Z,93.17
2022-10-23T19:36:29.294Z,92.30
2022-10-23T19:38:56.010Z,90.88
2022-10-23T19:41:22.510Z,91.26
2022-10-23T19:43:49.079Z,90.52
2022-10-23T19:46:16.342Z,90.74
2022-10-23T19:48:44.521Z,91.13
2022-10-23T19:51:12.930Z,89.88
2022-10-23T19:53:41.290Z,89.81
2022-10-23T19:56:09.470Z,90.18
2022-10-23T19:58:35.998Z,90.31
2022-10-23T20:01:11.871Z,90.66
2022-10-23T20:03:40.067Z,90.78
2022-10-23T20:06:15.275Z,91.92
2022-10-23T20:08:42.533Z,92.37
2022-10-23T20:11:10.443Z,93.24
2022-10-23T20:13:37.200Z,92.91
2022-10-23T20:16:03.923Z,92.32
2022-10-23T20:18:30.496Z,93.14
2022-10-23T20:20:57.061Z,93.20
2022-10-23T20:23:24.243Z,93.49
2022-10-23T20:25:50.737Z,94.00
2022-10-23T20:28:17.325Z,94.68
2022-10-23T20:30:45.514Z,94.94
2022-10-23T20:33:12.084Z,95.12
2022-10-23T20:35:42.739Z,95.22
2022-10-23T20:38:10.030Z,95.55
2022-10-23T20:40:37.036Z,95.83
2022-10-23T20:43:04.299Z,95.79
2022-10-23T20:45:30.802Z,96.08
2022-10-23T20:47:57.546Z,96.15
2022-10-23T20:50:24.178Z,96.88
2022-10-23T20:52:51.023Z,97.03
2022-10-23T20:55:18.119Z,97.18
2022-10-23T20:57:45.158Z,97.26
2022-10-23T21:00:12.342Z,97.27
2022-10-23T21:02:38.910Z,97.51
2022-10-23T21:05:06.231Z,97.56
2022-10-23T21:07:32.780Z,97.18
2022-10-23T21:09:59.468Z,97.41
2022-10-23T21:12:26.165Z,97.72
2022-10-23T21:14:53.577Z,98.01
2022-10-23T21:17:20.209Z,97.79
2022-10-23T21:19:47.223Z,98.22
2022-10-23T21:22:13.814Z,98.12
2022-10-23T21:24:40.414Z,98.16
2022-10-23T21:27:07.101Z,98.15
2022-10-23T21:29:33.781Z,98.55
2022-10-23T21:32:03.647Z,98.70
2022-10-23T21:34:30.826Z,98.56
2022-10-23T21:37:12.578Z,99.18
2022-10-23T21:39:40.654Z,98.29
2022-10-23T21:42:07.223Z,98.42
2022-10-23T21:44:33.787Z,98.06
2022-10-23T21:47:00.340Z,97.69
2022-10-23T21:49:27.065Z,98.00
2022-10-23T21:51:55.070Z,97.97
2022-10-23T21:54:21.895Z,97.70
2022-10-23T21:56:51.192Z,97.14
2022-10-23T21:59:21.733Z,95.33
2022-10-23T22:01:49.346Z,94.20
2022-10-23T22:04:18.190Z,94.75
2022-10-23T22:06:46.093Z,94.64
2022-10-23T22:09:15.337Z,93.91
2022-10-23T22:11:42.510Z,94.46
2022-10-23T22:14:09.081Z,94.86
2022-10-23T22:16:35.627Z,94.80
2022-10-23T22:19:02.226Z,95.76
2022-10-23T22:21:29.949Z,95.52
2022-10-23T22:23:58.618Z,95.93
2022-10-23T22:26:37.459Z,96.20
2022-10-23T22:29:06.709Z,96.72
2022-10-23T22:31:34.419Z,96.71
2022-10-23T22:34:13.175Z,96.71
2022-10-23T22:36:49.698Z,96.14
2022-10-23T22:39:16.253Z,96.38
2022-10-23T22:41:46.554Z,96.58
2022-10-23T22:44:14.856Z,96.54
2022-10-23T22:46:42.261Z,96.92
2022-10-23T22:49:08.925Z,97.28
2022-10-23T22:51:35.687Z,97.87
2022-10-23T22:54:02.211Z,98.35
2022-10-23T22:56:30.359Z,98.38
2022-10-23T22:58:57.567Z,98.85
2022-10-23T23:01:40.007Z,98.84
2022-10-23T23:04:14.059Z,98.48
2022-10-23T23:06:53.546Z,98.33
2022-10-23T23:09:20.400Z,97.78
2022-10-23T23:11:51.689Z,97.83
2022-10-23T23:14:22.940Z,98.11
2022-10-23T23:16:51.137Z,97.87
2022-10-23T23:19:17.688Z,97.90
2022-10-23T23:21:44.179Z,97.80
2022-10-23T23:24:12.206Z,97.83
2022-10-23T23:26:38.861Z,98.27
2022-10-23T23:29:05.681Z,98.95
2022-10-23T23:31:32.245Z,98.75
2022-10-23T23:33:58.763Z,98.13
2022-10-23T23:36:27.393Z,97.94
2022-10-23T23:38:55.713Z,97.65
2022-10-23T23:41:23.191Z,97.46
2022-10-23T23:43:49.792Z,97.41
2022-10-23T23:46:17.856Z,97.16
2022-10-23T23:48:47.990Z,96.68
2022-10-23T23:51:20.457Z,96.47
2022-10-23T23:53:48.020Z,96.27
2022-10-23T23:56:14.859Z,96.22
2022-10-23T23:58:41.870Z,96.80
